sensor_id;sensor_type;location;lat;lon;timestamp;temperature;humidity
83841;DHT22;73868;52.172;10.668;2023-12-29T00:00:36;9.70;74.60
83841;DHT22;73868;52.172;10.668;2023-12-29T00:03:02;9.70;74.60
83841;DHT22;73868;52.172;10.668;2023-12-29T00:05:28;9.70;74.80
83841;DHT22;73868;52.172;10.668;2023-12-29T00:07:53;9.70;74.10
83841;DHT22;73868;52.172;10.668;2023-12-29T00:10:19;9.70;74.30
83841;DHT22;73868;52.172;10.668;2023-12-29T00:12:45;9.80;74.10
83841;DHT22;73868;52.172;10.668;2023-12-29T00:15:10;9.70;74.10
83841;DHT22;73868;52.172;10.668;2023-12-29T00:17:36;9.70;74.10
83841;DHT22;73868;52.172;10.668;2023-12-29T00:20:06;9.60;74.80
83841;DHT22;73868;52.172;10.668;2023-12-29T00:22:34;9.70;74.60
83841;DHT22;73868;52.172;10.668;2023-12-29T00:24:59;9.60;74.60
83841;DHT22;73868;52.172;10.668;2023-12-29T00:27:25;9.60;74.50
83841;DHT22;73868;52.172;10.668;2023-12-29T00:29:50;9.70;74.60
83841;DHT22;73868;52.172;10.668;2023-12-29T00:32:16;9.60;74.30
83841;DHT22;73868;52.172;10.668;2023-12-29T00:34:41;9.60;74.50
83841;DHT22;73868;52.172;10.668;2023-12-29T00:37:07;9.60;74.40
83841;DHT22;73868;52.172;10.668;2023-12-29T00:39:34;9.70;74.20
83841;DHT22;73868;52.172;10.668;2023-12-29T00:42:04;9.70;74.40
83841;DHT22;73868;52.172;10.668;2023-12-29T00:44:31;9.70;74.10
83841;DHT22;73868;52.172;10.668;2023-12-29T00:46:57;9.70;73.80
83841;DHT22;73868;52.172;10.668;2023-12-29T00:49:22;9.70;73.80
83841;DHT22;73868;52.172;10.668;2023-12-29T00:51:48;9.80;73.20
83841;DHT22;73868;52.172;10.668;2023-12-29T00:54:14;9.80;73.20
83841;DHT22;73868;52.172;10.668;2023-12-29T00:56:39;9.80;73.40
83841;DHT22;73868;52.172;10.668;2023-12-29T00:59:05;9.80;73.00
83841;DHT22;73868;52.172;10.668;2023-12-29T01:01:36;9.80;73.20
83841;DHT22;73868;52.172;10.668;2023-12-29T01:04:02;9.70;74.10
83841;DHT22;73868;52.172;10.668;2023-12-29T01:06:28;9.70;74.30
83841;DHT22;73868;52.172;10.668;2023-12-29T01:08:53;9.70;73.90
83841;DHT22;73868;52.172;10.668;2023-12-29T01:11:19;9.70;74.50
83841;DHT22;73868;52.172;10.668;2023-12-29T01:13:44;9.70;74.20
83841;DHT22;73868;52.172;10.668;2023-12-29T01:16:10;9.70;74.00
83841;DHT22;73868;52.172;10.668;2023-12-29T01:18:35;9.80;73.90
83841;DHT22;73868;52.172;10.668;2023-12-29T01:21:01;9.80;73.80
83841;DHT22;73868;52.172;10.668;2023-12-29T01:23:27;9.80;73.30
83841;DHT22;73868;52.172;10.668;2023-12-29T01:25:52;9.80;73.00
83841;DHT22;73868;52.172;10.668;2023-12-29T01:28:18;9.80;73.50
83841;DHT22;73868;52.172;10.668;2023-12-29T01:30:43;9.70;73.60
83841;DHT22;73868;52.172;10.668;2023-12-29T01:33:09;9.70;73.70
83841;DHT22;73868;52.172;10.668;2023-12-29T01:35:35;9.70;73.70
83841;DHT22;73868;52.172;10.668;2023-12-29T01:38:02;9.70;73.70
83841;DHT22;73868;52.172;10.668;2023-12-29T01:40:28;9.60;74.10
83841;DHT22;73868;52.172;10.668;2023-12-29T01:42:53;9.70;74.00
83841;DHT22;73868;52.172;10.668;2023-12-29T01:45:23;9.70;73.90
83841;DHT22;73868;52.172;10.668;2023-12-29T01:47:50;9.70;74.40
83841;DHT22;73868;52.172;10.668;2023-12-29T01:50:21;9.70;74.70
83841;DHT22;73868;52.172;10.668;2023-12-29T01:52:48;9.60;75.70
83841;DHT22;73868;52.172;10.668;2023-12-29T01:55:18;9.40;76.00
83841;DHT22;73868;52.172;10.668;2023-12-29T01:57:44;9.20;77.10
83841;DHT22;73868;52.172;10.668;2023-12-29T02:00:11;9.10;78.10
83841;DHT22;73868;52.172;10.668;2023-12-29T02:02:37;9.00;78.10
83841;DHT22;73868;52.172;10.668;2023-12-29T02:05:03;9.10;78.10
83841;DHT22;73868;52.172;10.668;2023-12-29T02:07:29;9.10;78.00
83841;DHT22;73868;52.172;10.668;2023-12-29T02:09:58;9.00;78.80
83841;DHT22;73868;52.172;10.668;2023-12-29T02:12:24;9.10;78.30
83841;DHT22;73868;52.172;10.668;2023-12-29T02:14:50;9.40;77.30
83841;DHT22;73868;52.172;10.668;2023-12-29T02:17:22;9.60;76.70
83841;DHT22;73868;52.172;10.668;2023-12-29T02:19:52;9.60;76.90
83841;DHT22;73868;52.172;10.668;2023-12-29T02:22:18;9.60;77.30
83841;DHT22;73868;52.172;10.668;2023-12-29T02:24:49;9.60;77.00
83841;DHT22;73868;52.172;10.668;2023-12-29T02:27:31;9.50;77.70
83841;DHT22;73868;52.172;10.668;2023-12-29T02:30:09;9.60;77.50
83841;DHT22;73868;52.172;10.668;2023-12-29T02:32:46;9.60;77.20
83841;DHT22;73868;52.172;10.668;2023-12-29T02:35:17;9.60;77.50
83841;DHT22;73868;52.172;10.668;2023-12-29T02:37:43;9.50;78.00
83841;DHT22;73868;52.172;10.668;2023-12-29T02:40:09;9.40;78.00
83841;DHT22;73868;52.172;10.668;2023-12-29T02:42:35;9.40;78.10
83841;DHT22;73868;52.172;10.668;2023-12-29T02:45:01;9.30;78.20
83841;DHT22;73868;52.172;10.668;2023-12-29T02:47:27;9.40;78.30
83841;DHT22;73868;52.172;10.668;2023-12-29T02:49:52;9.50;78.20
83841;DHT22;73868;52.172;10.668;2023-12-29T02:52:19;9.60;77.80
83841;DHT22;73868;52.172;10.668;2023-12-29T02:54:45;9.70;77.70
83841;DHT22;73868;52.172;10.668;2023-12-29T02:57:10;9.70;77.60
83841;DHT22;73868;52.172;10.668;2023-12-29T02:59:36;9.70;77.70
83841;DHT22;73868;52.172;10.668;2023-12-29T03:02:02;9.80;77.90
83841;DHT22;73868;52.172;10.668;2023-12-29T03:04:29;9.80;77.60
83841;DHT22;73868;52.172;10.668;2023-12-29T03:06:54;9.90;77.20
83841;DHT22;73868;52.172;10.668;2023-12-29T03:09:20;9.90;77.30
83841;DHT22;73868;52.172;10.668;2023-12-29T03:11:45;9.80;77.60
83841;DHT22;73868;52.172;10.668;2023-12-29T03:14:11;9.80;77.50
83841;DHT22;73868;52.172;10.668;2023-12-29T03:16:36;9.90;77.50
83841;DHT22;73868;52.172;10.668;2023-12-29T03:19:02;9.90;77.30
83841;DHT22;73868;52.172;10.668;2023-12-29T03:21:28;9.90;77.70
83841;DHT22;73868;52.172;10.668;2023-12-29T03:23:53;9.90;77.60
83841;DHT22;73868;52.172;10.668;2023-12-29T03:26:19;9.90;77.60
83841;DHT22;73868;52.172;10.668;2023-12-29T03:28:44;9.90;77.80
83841;DHT22;73868;52.172;10.668;2023-12-29T03:31:10;9.90;77.70
83841;DHT22;73868;52.172;10.668;2023-12-29T03:33:35;9.90;77.80
83841;DHT22;73868;52.172;10.668;2023-12-29T03:36:01;9.90;77.80
83841;DHT22;73868;52.172;10.668;2023-12-29T03:38:26;9.90;78.10
83841;DHT22;73868;52.172;10.668;2023-12-29T03:40:52;9.80;78.20
83841;DHT22;73868;52.172;10.668;2023-12-29T03:43:17;9.90;78.10
83841;DHT22;73868;52.172;10.668;2023-12-29T03:45:43;9.80;78.40
83841;DHT22;73868;52.172;10.668;2023-12-29T03:48:08;9.80;78.60
83841;DHT22;73868;52.172;10.668;2023-12-29T03:50:34;9.70;78.90
83841;DHT22;73868;52.172;10.668;2023-12-29T03:53:00;9.70;79.10
83841;DHT22;73868;52.172;10.668;2023-12-29T03:55:25;9.70;79.10
83841;DHT22;73868;52.172;10.668;2023-12-29T03:57:51;9.70;79.10
83841;DHT22;73868;52.172;10.668;2023-12-29T04:00:17;9.70;79.20
83841;DHT22;73868;52.172;10.668;2023-12-29T04:02:42;9.70;79.00
83841;DHT22;73868;52.172;10.668;2023-12-29T04:05:09;9.70;79.30
83841;DHT22;73868;52.172;10.668;2023-12-29T04:07:35;9.70;79.00
83841;DHT22;73868;52.172;10.668;2023-12-29T04:10:00;9.80;78.50
83841;DHT22;73868;52.172;10.668;2023-12-29T04:12:26;9.80;78.70
83841;DHT22;73868;52.172;10.668;2023-12-29T04:14:51;9.90;79.10
83841;DHT22;73868;52.172;10.668;2023-12-29T04:17:17;9.80;80.00
83841;DHT22;73868;52.172;10.668;2023-12-29T04:19:43;9.80;80.90
83841;DHT22;73868;52.172;10.668;2023-12-29T04:22:08;9.70;81.50
83841;DHT22;73868;52.172;10.668;2023-12-29T04:24:34;9.70;81.70
83841;DHT22;73868;52.172;10.668;2023-12-29T04:27:00;9.70;81.00
83841;DHT22;73868;52.172;10.668;2023-12-29T04:29:25;9.70;81.40
83841;DHT22;73868;52.172;10.668;2023-12-29T04:31:51;9.70;82.60
83841;DHT22;73868;52.172;10.668;2023-12-29T04:34:16;9.60;82.80
83841;DHT22;73868;52.172;10.668;2023-12-29T04:36:42;9.50;83.50
83841;DHT22;73868;52.172;10.668;2023-12-29T04:39:07;9.40;84.30
83841;DHT22;73868;52.172;10.668;2023-12-29T04:41:36;9.30;84.70
83841;DHT22;73868;52.172;10.668;2023-12-29T04:44:01;9.30;84.90
83841;DHT22;73868;52.172;10.668;2023-12-29T04:46:27;9.20;85.00
83841;DHT22;73868;52.172;10.668;2023-12-29T04:48:52;9.20;85.20
83841;DHT22;73868;52.172;10.668;2023-12-29T04:51:18;9.10;85.50
83841;DHT22;73868;52.172;10.668;2023-12-29T04:53:44;9.00;85.90
83841;DHT22;73868;52.172;10.668;2023-12-29T04:56:10;9.00;86.00
83841;DHT22;73868;52.172;10.668;2023-12-29T04:58:35;9.00;85.60
83841;DHT22;73868;52.172;10.668;2023-12-29T05:01:01;9.00;85.60
83841;DHT22;73868;52.172;10.668;2023-12-29T05:03:26;9.10;85.20
83841;DHT22;73868;52.172;10.668;2023-12-29T05:05:52;9.10;85.20
83841;DHT22;73868;52.172;10.668;2023-12-29T05:08:17;9.20;85.10
83841;DHT22;73868;52.172;10.668;2023-12-29T05:10:43;9.10;85.20
83841;DHT22;73868;52.172;10.668;2023-12-29T05:13:09;9.10;84.70
83841;DHT22;73868;52.172;10.668;2023-12-29T05:15:34;9.10;85.10
83841;DHT22;73868;52.172;10.668;2023-12-29T05:18:00;9.20;84.70
83841;DHT22;73868;52.172;10.668;2023-12-29T05:20:25;9.20;84.30
83841;DHT22;73868;52.172;10.668;2023-12-29T05:22:51;9.30;83.90
83841;DHT22;73868;52.172;10.668;2023-12-29T05:25:16;9.30;84.30
83841;DHT22;73868;52.172;10.668;2023-12-29T05:27:42;9.30;84.00
83841;DHT22;73868;52.172;10.668;2023-12-29T05:30:07;9.30;84.20
83841;DHT22;73868;52.172;10.668;2023-12-29T05:32:33;9.30;84.90
83841;DHT22;73868;52.172;10.668;2023-12-29T05:34:59;9.30;84.70
83841;DHT22;73868;52.172;10.668;2023-12-29T05:37:24;9.30;84.50
83841;DHT22;73868;52.172;10.668;2023-12-29T05:39:50;9.30;84.60
83841;DHT22;73868;52.172;10.668;2023-12-29T05:42:15;9.20;84.70
83841;DHT22;73868;52.172;10.668;2023-12-29T05:44:41;9.20;84.70
83841;DHT22;73868;52.172;10.668;2023-12-29T05:47:06;9.30;84.50
83841;DHT22;73868;52.172;10.668;2023-12-29T05:49:32;9.30;84.20
83841;DHT22;73868;52.172;10.668;2023-12-29T05:52:03;9.30;84.60
83841;DHT22;73868;52.172;10.668;2023-12-29T05:54:29;9.30;85.00
83841;DHT22;73868;52.172;10.668;2023-12-29T05:56:54;9.30;85.10
83841;DHT22;73868;52.172;10.668;2023-12-29T05:59:20;9.20;85.30
83841;DHT22;73868;52.172;10.668;2023-12-29T06:01:45;9.20;85.70
83841;DHT22;73868;52.172;10.668;2023-12-29T06:04:11;9.10;86.40
83841;DHT22;73868;52.172;10.668;2023-12-29T06:06:37;9.20;86.20
83841;DHT22;73868;52.172;10.668;2023-12-29T06:09:02;9.10;86.60
83841;DHT22;73868;52.172;10.668;2023-12-29T06:11:28;9.10;87.00
83841;DHT22;73868;52.172;10.668;2023-12-29T06:13:53;9.10;87.00
83841;DHT22;73868;52.172;10.668;2023-12-29T06:16:20;9.10;86.90
83841;DHT22;73868;52.172;10.668;2023-12-29T06:18:46;9.10;87.00
83841;DHT22;73868;52.172;10.668;2023-12-29T06:21:12;9.10;87.10
83841;DHT22;73868;52.172;10.668;2023-12-29T06:23:37;9.10;87.30
83841;DHT22;73868;52.172;10.668;2023-12-29T06:26:03;9.10;87.40
83841;DHT22;73868;52.172;10.668;2023-12-29T06:28:29;9.10;87.70
83841;DHT22;73868;52.172;10.668;2023-12-29T06:30:54;9.10;87.70
83841;DHT22;73868;52.172;10.668;2023-12-29T06:33:20;9.10;87.60
83841;DHT22;73868;52.172;10.668;2023-12-29T06:35:48;9.10;87.80
83841;DHT22;73868;52.172;10.668;2023-12-29T06:38:14;9.10;87.50
83841;DHT22;73868;52.172;10.668;2023-12-29T06:40:39;9.10;87.40
83841;DHT22;73868;52.172;10.668;2023-12-29T06:43:05;9.10;87.40
83841;DHT22;73868;52.172;10.668;2023-12-29T06:45:30;9.10;87.30
83841;DHT22;73868;52.172;10.668;2023-12-29T06:47:56;9.10;87.20
83841;DHT22;73868;52.172;10.668;2023-12-29T06:50:22;9.20;86.60
83841;DHT22;73868;52.172;10.668;2023-12-29T06:52:48;9.20;86.40
83841;DHT22;73868;52.172;10.668;2023-12-29T06:55:13;9.30;86.40
83841;DHT22;73868;52.172;10.668;2023-12-29T06:57:39;9.30;86.20
83841;DHT22;73868;52.172;10.668;2023-12-29T07:00:05;9.30;86.10
83841;DHT22;73868;52.172;10.668;2023-12-29T07:02:31;9.30;86.00
83841;DHT22;73868;52.172;10.668;2023-12-29T07:04:57;9.30;85.90
83841;DHT22;73868;52.172;10.668;2023-12-29T07:07:22;9.30;85.80
83841;DHT22;73868;52.172;10.668;2023-12-29T07:09:48;9.30;85.60
83841;DHT22;73868;52.172;10.668;2023-12-29T07:12:13;9.30;85.40
83841;DHT22;73868;52.172;10.668;2023-12-29T07:14:41;9.20;85.50
83841;DHT22;73868;52.172;10.668;2023-12-29T07:17:06;9.20;85.60
83841;DHT22;73868;52.172;10.668;2023-12-29T07:19:32;9.20;85.40
83841;DHT22;73868;52.172;10.668;2023-12-29T07:22:03;9.20;85.30
83841;DHT22;73868;52.172;10.668;2023-12-29T07:24:29;9.10;85.60
83841;DHT22;73868;52.172;10.668;2023-12-29T07:26:54;9.00;86.10
83841;DHT22;73868;52.172;10.668;2023-12-29T07:29:20;9.00;86.00
83841;DHT22;73868;52.172;10.668;2023-12-29T07:31:46;9.10;86.20
83841;DHT22;73868;52.172;10.668;2023-12-29T07:34:11;9.30;85.20
83841;DHT22;73868;52.172;10.668;2023-12-29T07:36:40;9.30;84.90
83841;DHT22;73868;52.172;10.668;2023-12-29T07:39:06;9.40;84.60
83841;DHT22;73868;52.172;10.668;2023-12-29T07:41:32;9.50;84.20
83841;DHT22;73868;52.172;10.668;2023-12-29T07:43:57;9.50;84.20
83841;DHT22;73868;52.172;10.668;2023-12-29T07:46:24;9.50;83.50
83841;DHT22;73868;52.172;10.668;2023-12-29T07:48:50;9.60;83.70
83841;DHT22;73868;52.172;10.668;2023-12-29T07:51:16;9.50;83.40
83841;DHT22;73868;52.172;10.668;2023-12-29T07:53:41;9.50;83.20
83841;DHT22;73868;52.172;10.668;2023-12-29T07:56:07;9.50;82.80
83841;DHT22;73868;52.172;10.668;2023-12-29T07:58:32;9.40;83.50
83841;DHT22;73868;52.172;10.668;2023-12-29T08:00:58;9.40;83.50
83841;DHT22;73868;52.172;10.668;2023-12-29T08:03:24;9.30;84.10
83841;DHT22;73868;52.172;10.668;2023-12-29T08:05:49;9.40;83.70
83841;DHT22;73868;52.172;10.668;2023-12-29T08:08:15;9.40;83.10
83841;DHT22;73868;52.172;10.668;2023-12-29T08:10:40;9.60;82.80
83841;DHT22;73868;52.172;10.668;2023-12-29T08:13:06;9.80;82.20
83841;DHT22;73868;52.172;10.668;2023-12-29T08:15:34;9.80;81.70
83841;DHT22;73868;52.172;10.668;2023-12-29T08:18:00;10.00;81.00
83841;DHT22;73868;52.172;10.668;2023-12-29T08:20:25;10.10;81.30
83841;DHT22;73868;52.172;10.668;2023-12-29T08:22:51;10.00;81.00
83841;DHT22;73868;52.172;10.668;2023-12-29T08:25:16;10.00;80.90
83841;DHT22;73868;52.172;10.668;2023-12-29T08:27:42;10.10;81.10
83841;DHT22;73868;52.172;10.668;2023-12-29T08:30:08;10.10;80.80
83841;DHT22;73868;52.172;10.668;2023-12-29T08:32:34;10.10;81.20
83841;DHT22;73868;52.172;10.668;2023-12-29T08:34:59;10.10;80.50
83841;DHT22;73868;52.172;10.668;2023-12-29T08:37:25;10.10;80.90
83841;DHT22;73868;52.172;10.668;2023-12-29T08:39:50;10.20;80.40
83841;DHT22;73868;52.172;10.668;2023-12-29T08:42:16;10.20;79.80
83841;DHT22;73868;52.172;10.668;2023-12-29T08:44:42;10.30;80.00
83841;DHT22;73868;52.172;10.668;2023-12-29T08:47:07;10.30;80.50
83841;DHT22;73868;52.172;10.668;2023-12-29T08:49:36;10.30;79.70
83841;DHT22;73868;52.172;10.668;2023-12-29T08:52:02;10.40;79.50
83841;DHT22;73868;52.172;10.668;2023-12-29T08:54:27;10.50;79.10
83841;DHT22;73868;52.172;10.668;2023-12-29T08:56:53;10.50;78.80
83841;DHT22;73868;52.172;10.668;2023-12-29T08:59:18;10.60;79.00
83841;DHT22;73868;52.172;10.668;2023-12-29T09:01:44;10.60;78.70
83841;DHT22;73868;52.172;10.668;2023-12-29T09:04:10;10.70;78.30
83841;DHT22;73868;52.172;10.668;2023-12-29T09:06:35;10.80;77.70
83841;DHT22;73868;52.172;10.668;2023-12-29T09:09:01;10.80;78.00
83841;DHT22;73868;52.172;10.668;2023-12-29T09:11:26;10.80;77.80
83841;DHT22;73868;52.172;10.668;2023-12-29T09:13:52;10.90;76.80
83841;DHT22;73868;52.172;10.668;2023-12-29T09:16:17;10.90;76.40
83841;DHT22;73868;52.172;10.668;2023-12-29T09:18:43;10.90;76.30
83841;DHT22;73868;52.172;10.668;2023-12-29T09:21:09;10.80;76.40
83841;DHT22;73868;52.172;10.668;2023-12-29T09:23:34;10.80;76.90
83841;DHT22;73868;52.172;10.668;2023-12-29T09:26:02;10.80;76.90
83841;DHT22;73868;52.172;10.668;2023-12-29T09:28:32;10.90;76.90
83841;DHT22;73868;52.172;10.668;2023-12-29T09:30:58;11.00;76.20
83841;DHT22;73868;52.172;10.668;2023-12-29T09:33:24;11.00;76.40
83841;DHT22;73868;52.172;10.668;2023-12-29T09:35:50;11.10;76.00
83841;DHT22;73868;52.172;10.668;2023-12-29T09:38:16;11.30;74.70
83841;DHT22;73868;52.172;10.668;2023-12-29T09:40:42;11.30;74.40
83841;DHT22;73868;52.172;10.668;2023-12-29T09:43:09;11.30;74.50
83841;DHT22;73868;52.172;10.668;2023-12-29T09:45:37;11.30;74.80
83841;DHT22;73868;52.172;10.668;2023-12-29T09:48:07;11.30;74.80
83841;DHT22;73868;52.172;10.668;2023-12-29T09:50:32;11.20;74.70
83841;DHT22;73868;52.172;10.668;2023-12-29T09:53:02;11.10;75.10
83841;DHT22;73868;52.172;10.668;2023-12-29T09:55:28;11.00;75.60
83841;DHT22;73868;52.172;10.668;2023-12-29T09:57:54;10.90;75.90
83841;DHT22;73868;52.172;10.668;2023-12-29T10:00:20;10.80;76.50
83841;DHT22;73868;52.172;10.668;2023-12-29T10:02:48;10.80;77.10
83841;DHT22;73868;52.172;10.668;2023-12-29T10:05:16;10.70;77.40
83841;DHT22;73868;52.172;10.668;2023-12-29T10:07:42;10.70;77.40
83841;DHT22;73868;52.172;10.668;2023-12-29T10:10:14;10.60;77.90
83841;DHT22;73868;52.172;10.668;2023-12-29T10:12:41;10.40;79.40
83841;DHT22;73868;52.172;10.668;2023-12-29T10:15:24;10.20;80.80
83841;DHT22;73868;52.172;10.668;2023-12-29T10:18:14;10.10;81.70
83841;DHT22;73868;52.172;10.668;2023-12-29T10:21:01;9.80;84.20
83841;DHT22;73868;52.172;10.668;2023-12-29T10:23:36;9.70;85.20
83841;DHT22;73868;52.172;10.668;2023-12-29T10:26:03;9.60;85.40
83841;DHT22;73868;52.172;10.668;2023-12-29T10:28:29;9.60;85.60
83841;DHT22;73868;52.172;10.668;2023-12-29T10:30:54;9.60;85.90
83841;DHT22;73868;52.172;10.668;2023-12-29T10:33:20;9.60;86.50
83841;DHT22;73868;52.172;10.668;2023-12-29T10:35:58;9.60;86.80
83841;DHT22;73868;52.172;10.668;2023-12-29T10:38:27;9.70;86.70
83841;DHT22;73868;52.172;10.668;2023-12-29T10:40:53;9.90;85.80
83841;DHT22;73868;52.172;10.668;2023-12-29T10:43:23;10.00;85.90
83841;DHT22;73868;52.172;10.668;2023-12-29T10:45:48;9.90;86.30
83841;DHT22;73868;52.172;10.668;2023-12-29T10:48:21;9.90;86.50
83841;DHT22;73868;52.172;10.668;2023-12-29T10:50:49;9.90;86.10
83841;DHT22;73868;52.172;10.668;2023-12-29T10:53:15;10.00;86.70
83841;DHT22;73868;52.172;10.668;2023-12-29T10:55:43;10.00;85.80
83841;DHT22;73868;52.172;10.668;2023-12-29T10:58:09;10.00;85.80
83841;DHT22;73868;52.172;10.668;2023-12-29T11:00:35;10.10;85.70
83841;DHT22;73868;52.172;10.668;2023-12-29T11:03:00;10.20;85.50
83841;DHT22;73868;52.172;10.668;2023-12-29T11:05:26;10.40;85.40
83841;DHT22;73868;52.172;10.668;2023-12-29T11:07:53;10.50;84.50
83841;DHT22;73868;52.172;10.668;2023-12-29T11:10:20;10.50;84.40
83841;DHT22;73868;52.172;10.668;2023-12-29T11:12:47;10.60;84.30
83841;DHT22;73868;52.172;10.668;2023-12-29T11:15:14;10.60;84.60
83841;DHT22;73868;52.172;10.668;2023-12-29T11:17:42;10.50;84.90
83841;DHT22;73868;52.172;10.668;2023-12-29T11:20:16;10.40;85.50
83841;DHT22;73868;52.172;10.668;2023-12-29T11:22:42;10.40;85.00
83841;DHT22;73868;52.172;10.668;2023-12-29T11:25:09;10.40;84.40
83841;DHT22;73868;52.172;10.668;2023-12-29T11:27:35;10.40;83.60
83841;DHT22;73868;52.172;10.668;2023-12-29T11:30:02;10.40;83.80
83841;DHT22;73868;52.172;10.668;2023-12-29T11:32:34;10.40;84.50
83841;DHT22;73868;52.172;10.668;2023-12-29T11:35:14;10.40;82.80
83841;DHT22;73868;52.172;10.668;2023-12-29T11:43:20;10.60;81.20
83841;DHT22;73868;52.172;10.668;2023-12-29T11:45:46;10.70;81.20
83841;DHT22;73868;52.172;10.668;2023-12-29T11:48:11;10.70;81.50
83841;DHT22;73868;52.172;10.668;2023-12-29T11:50:39;10.70;81.30
83841;DHT22;73868;52.172;10.668;2023-12-29T11:53:07;10.70;81.70
83841;DHT22;73868;52.172;10.668;2023-12-29T11:55:37;10.80;81.10
83841;DHT22;73868;52.172;10.668;2023-12-29T11:58:04;10.80;80.70
83841;DHT22;73868;52.172;10.668;2023-12-29T12:05:48;10.90;80.00
83841;DHT22;73868;52.172;10.668;2023-12-29T12:08:33;10.90;79.90
83841;DHT22;73868;52.172;10.668;2023-12-29T12:14:05;10.80;80.70
83841;DHT22;73868;52.172;10.668;2023-12-29T12:19:08;10.80;81.00
83841;DHT22;73868;52.172;10.668;2023-12-29T12:21:35;10.90;80.70
83841;DHT22;73868;52.172;10.668;2023-12-29T12:24:03;10.90;81.00
83841;DHT22;73868;52.172;10.668;2023-12-29T12:26:30;10.80;79.80
83841;DHT22;73868;52.172;10.668;2023-12-29T12:28:56;10.80;80.00
83841;DHT22;73868;52.172;10.668;2023-12-29T12:31:22;10.80;79.90
83841;DHT22;73868;52.172;10.668;2023-12-29T12:33:57;10.80;79.90
83841;DHT22;73868;52.172;10.668;2023-12-29T12:36:23;10.70;79.90
83841;DHT22;73868;52.172;10.668;2023-12-29T12:38:51;10.80;80.00
83841;DHT22;73868;52.172;10.668;2023-12-29T12:41:17;10.80;79.90
83841;DHT22;73868;52.172;10.668;2023-12-29T12:43:50;10.90;80.10
83841;DHT22;73868;52.172;10.668;2023-12-29T12:46:23;10.80;79.90
83841;DHT22;73868;52.172;10.668;2023-12-29T12:48:51;10.80;79.80
83841;DHT22;73868;52.172;10.668;2023-12-29T12:51:19;10.80;79.90
83841;DHT22;73868;52.172;10.668;2023-12-29T12:53:45;10.80;80.40
83841;DHT22;73868;52.172;10.668;2023-12-29T12:56:13;10.80;80.10
83841;DHT22;73868;52.172;10.668;2023-12-29T12:58:39;10.80;80.20
83841;DHT22;73868;52.172;10.668;2023-12-29T13:01:05;10.80;80.10
83841;DHT22;73868;52.172;10.668;2023-12-29T13:03:31;10.90;80.40
83841;DHT22;73868;52.172;10.668;2023-12-29T13:05:59;10.90;80.70
83841;DHT22;73868;52.172;10.668;2023-12-29T13:08:25;10.90;80.30
83841;DHT22;73868;52.172;10.668;2023-12-29T13:10:52;10.90;80.70
83841;DHT22;73868;52.172;10.668;2023-12-29T13:13:18;10.90;80.80
83841;DHT22;73868;52.172;10.668;2023-12-29T13:15:50;10.80;80.80
83841;DHT22;73868;52.172;10.668;2023-12-29T13:18:17;10.80;81.50
83841;DHT22;73868;52.172;10.668;2023-12-29T13:20:49;10.80;81.50
83841;DHT22;73868;52.172;10.668;2023-12-29T13:23:16;10.80;81.40
83841;DHT22;73868;52.172;10.668;2023-12-29T13:25:46;10.80;81.70
83841;DHT22;73868;52.172;10.668;2023-12-29T13:28:12;10.70;81.50
83841;DHT22;73868;52.172;10.668;2023-12-29T13:30:39;10.70;81.40
83841;DHT22;73868;52.172;10.668;2023-12-29T13:35:54;10.70;81.40
83841;DHT22;73868;52.172;10.668;2023-12-29T13:38:38;10.80;81.20
83841;DHT22;73868;52.172;10.668;2023-12-29T13:41:09;10.70;81.30
83841;DHT22;73868;52.172;10.668;2023-12-29T13:43:39;10.70;81.50
83841;DHT22;73868;52.172;10.668;2023-12-29T13:46:09;10.60;81.80
83841;DHT22;73868;52.172;10.668;2023-12-29T13:48:37;10.60;82.10
83841;DHT22;73868;52.172;10.668;2023-12-29T13:51:03;10.60;81.40
83841;DHT22;73868;52.172;10.668;2023-12-29T13:53:29;10.60;81.60
83841;DHT22;73868;52.172;10.668;2023-12-29T13:56:08;10.60;81.30
83841;DHT22;73868;52.172;10.668;2023-12-29T13:58:34;10.60;81.40
83841;DHT22;73868;52.172;10.668;2023-12-29T14:01:00;10.60;81.60
83841;DHT22;73868;52.172;10.668;2023-12-29T14:03:42;10.60;81.40
83841;DHT22;73868;52.172;10.668;2023-12-29T14:06:12;10.40;82.10
83841;DHT22;73868;52.172;10.668;2023-12-29T14:08:40;10.40;81.80
83841;DHT22;73868;52.172;10.668;2023-12-29T14:11:10;10.40;81.80
83841;DHT22;73868;52.172;10.668;2023-12-29T14:13:41;10.40;82.00
83841;DHT22;73868;52.172;10.668;2023-12-29T14:16:07;10.40;82.10
83841;DHT22;73868;52.172;10.668;2023-12-29T14:20:58;10.20;83.00
83841;DHT22;73868;52.172;10.668;2023-12-29T14:23:25;10.20;82.90
83841;DHT22;73868;52.172;10.668;2023-12-29T14:25:51;10.10;83.30
83841;DHT22;73868;52.172;10.668;2023-12-29T14:28:20;10.10;83.50
83841;DHT22;73868;52.172;10.668;2023-12-29T14:30:49;10.00;83.80
83841;DHT22;73868;52.172;10.668;2023-12-29T14:33:15;10.00;84.50
83841;DHT22;73868;52.172;10.668;2023-12-29T14:35:41;9.90;84.70
83841;DHT22;73868;52.172;10.668;2023-12-29T14:38:07;9.90;84.60
83841;DHT22;73868;52.172;10.668;2023-12-29T14:40:32;9.90;84.90
83841;DHT22;73868;52.172;10.668;2023-12-29T14:43:01;9.80;85.30
83841;DHT22;73868;52.172;10.668;2023-12-29T14:45:27;9.80;85.60
83841;DHT22;73868;52.172;10.668;2023-12-29T14:47:58;9.70;86.10
83841;DHT22;73868;52.172;10.668;2023-12-29T14:50:23;9.60;86.30
83841;DHT22;73868;52.172;10.668;2023-12-29T14:52:49;9.60;86.70
83841;DHT22;73868;52.172;10.668;2023-12-29T14:55:14;9.70;86.40
83841;DHT22;73868;52.172;10.668;2023-12-29T14:57:40;9.80;86.10
83841;DHT22;73868;52.172;10.668;2023-12-29T15:00:06;9.90;85.60
83841;DHT22;73868;52.172;10.668;2023-12-29T15:02:32;9.90;85.60
83841;DHT22;73868;52.172;10.668;2023-12-29T15:04:57;9.80;85.60
83841;DHT22;73868;52.172;10.668;2023-12-29T15:07:23;9.90;85.80
83841;DHT22;73868;52.172;10.668;2023-12-29T15:09:54;9.80;86.20
83841;DHT22;73868;52.172;10.668;2023-12-29T15:12:20;9.80;86.10
83841;DHT22;73868;52.172;10.668;2023-12-29T15:14:45;9.90;85.80
83841;DHT22;73868;52.172;10.668;2023-12-29T15:17:11;9.90;85.70
83841;DHT22;73868;52.172;10.668;2023-12-29T15:19:37;9.90;85.70
83841;DHT22;73868;52.172;10.668;2023-12-29T15:22:02;9.90;85.50
83841;DHT22;73868;52.172;10.668;2023-12-29T15:24:28;9.90;85.70
83841;DHT22;73868;52.172;10.668;2023-12-29T15:26:53;9.90;85.80
83841;DHT22;73868;52.172;10.668;2023-12-29T15:29:19;9.90;85.80
83841;DHT22;73868;52.172;10.668;2023-12-29T15:31:44;9.90;86.10
83841;DHT22;73868;52.172;10.668;2023-12-29T15:34:10;9.80;86.30
83841;DHT22;73868;52.172;10.668;2023-12-29T15:36:36;9.80;86.50
83841;DHT22;73868;52.172;10.668;2023-12-29T15:39:02;9.80;86.00
83841;DHT22;73868;52.172;10.668;2023-12-29T15:41:31;9.80;86.20
83841;DHT22;73868;52.172;10.668;2023-12-29T15:43:56;9.90;85.70